sensor_id;sensor_type;location;lat;lon;timestamp;P1;durP1;ratioP1;P2;durP2;ratioP2
7361;SDS011;3721;44.490;11.220;2023-02-13T00:00:43;39.90;;;22.57;;
7361;SDS011;3721;44.490;11.220;2023-02-13T00:03:09;41.17;;;23.10;;
7361;SDS011;3721;44.490;11.220;2023-02-13T00:05:34;46.63;;;24.23;;
7361;SDS011;3721;44.490;11.220;2023-02-13T00:08:00;45.83;;;23.97;;
7361;SDS011;3721;44.490;11.220;2023-02-13T00:10:26;50.83;;;23.53;;
7361;SDS011;3721;44.490;11.220;2023-02-13T00:12:52;42.80;;;22.10;;
7361;SDS011;3721;44.490;11.220;2023-02-13T00:15:17;45.00;;;22.93;;
7361;SDS011;3721;44.490;11.220;2023-02-13T00:17:43;40.07;;;21.87;;
7361;SDS011;3721;44.490;11.220;2023-02-13T00:20:09;37.83;;;20.50;;
7361;SDS011;3721;44.490;11.220;2023-02-13T00:22:36;39.47;;;22.43;;
7361;SDS011;3721;44.490;11.220;2023-02-13T00:25:06;35.23;;;19.80;;
7361;SDS011;3721;44.490;11.220;2023-02-13T00:27:32;39.60;;;20.60;;
7361;SDS011;3721;44.490;11.220;2023-02-13T00:29:58;37.10;;;20.70;;
7361;SDS011;3721;44.490;11.220;2023-02-13T00:32:24;32.53;;;20.33;;
7361;SDS011;3721;44.490;11.220;2023-02-13T00:34:50;41.53;;;21.63;;
7361;SDS011;3721;44.490;11.220;2023-02-13T00:37:15;37.27;;;21.80;;
7361;SDS011;3721;44.490;11.220;2023-02-13T00:39:41;35.60;;;20.83;;
7361;SDS011;3721;44.490;11.220;2023-02-13T00:42:07;35.83;;;20.67;;
7361;SDS011;3721;44.490;11.220;2023-02-13T00:44:32;31.67;;;18.83;;
7361;SDS011;3721;44.490;11.220;2023-02-13T00:46:58;32.73;;;18.77;;
7361;SDS011;3721;44.490;11.220;2023-02-13T00:49:24;37.10;;;21.00;;
7361;SDS011;3721;44.490;11.220;2023-02-13T00:51:49;37.00;;;19.40;;
7361;SDS011;3721;44.490;11.220;2023-02-13T00:54:15;33.77;;;19.97;;
7361;SDS011;3721;44.490;11.220;2023-02-13T00:56:41;33.47;;;19.80;;
7361;SDS011;3721;44.490;11.220;2023-02-13T00:59:07;31.63;;;18.73;;
7361;SDS011;3721;44.490;11.220;2023-02-13T01:01:32;33.30;;;19.70;;
7361;SDS011;3721;44.490;11.220;2023-02-13T01:03:58;38.23;;;21.07;;
7361;SDS011;3721;44.490;11.220;2023-02-13T01:06:24;36.23;;;19.80;;
7361;SDS011;3721;44.490;11.220;2023-02-13T01:08:49;33.80;;;20.17;;
7361;SDS011;3721;44.490;11.220;2023-02-13T01:11:15;39.83;;;21.17;;
7361;SDS011;3721;44.490;11.220;2023-02-13T01:13:43;33.33;;;19.40;;
7361;SDS011;3721;44.490;11.220;2023-02-13T01:16:09;31.70;;;19.23;;
7361;SDS011;3721;44.490;11.220;2023-02-13T01:18:34;41.03;;;20.37;;
7361;SDS011;3721;44.490;11.220;2023-02-13T01:21:05;38.10;;;22.10;;
7361;SDS011;3721;44.490;11.220;2023-02-13T01:23:32;32.47;;;19.50;;
7361;SDS011;3721;44.490;11.220;2023-02-13T01:26:04;37.07;;;19.70;;
7361;SDS011;3721;44.490;11.220;2023-02-13T01:28:31;39.40;;;21.50;;
7361;SDS011;3721;44.490;11.220;2023-02-13T01:30:57;34.10;;;19.90;;
7361;SDS011;3721;44.490;11.220;2023-02-13T01:33:23;39.77;;;21.87;;
7361;SDS011;3721;44.490;11.220;2023-02-13T01:35:50;42.97;;;21.87;;
7361;SDS011;3721;44.490;11.220;2023-02-13T01:38:16;34.80;;;20.73;;
7361;SDS011;3721;44.490;11.220;2023-02-13T01:40:52;38.43;;;22.33;;
7361;SDS011;3721;44.490;11.220;2023-02-13T01:43:18;35.53;;;20.90;;
7361;SDS011;3721;44.490;11.220;2023-02-13T01:45:47;43.60;;;22.60;;
7361;SDS011;3721;44.490;11.220;2023-02-13T01:48:18;41.53;;;22.23;;
7361;SDS011;3721;44.490;11.220;2023-02-13T01:51:06;38.30;;;20.57;;
7361;SDS011;3721;44.490;11.220;2023-02-13T01:53:44;37.03;;;21.97;;
7361;SDS011;3721;44.490;11.220;2023-02-13T01:56:17;38.70;;;22.57;;
7361;SDS011;3721;44.490;11.220;2023-02-13T01:58:45;40.33;;;21.80;;
7361;SDS011;3721;44.490;11.220;2023-02-13T02:01:13;32.93;;;19.27;;
7361;SDS011;3721;44.490;11.220;2023-02-13T02:03:41;36.50;;;18.27;;
7361;SDS011;3721;44.490;11.220;2023-02-13T02:06:13;37.33;;;20.20;;
7361;SDS011;3721;44.490;11.220;2023-02-13T02:08:45;32.53;;;18.53;;
7361;SDS011;3721;44.490;11.220;2023-02-13T02:11:19;32.33;;;18.30;;
7361;SDS011;3721;44.490;11.220;2023-02-13T02:13:55;33.20;;;18.63;;
7361;SDS011;3721;44.490;11.220;2023-02-13T02:16:22;35.60;;;19.10;;
7361;SDS011;3721;44.490;11.220;2023-02-13T02:18:49;34.17;;;19.80;;
7361;SDS011;3721;44.490;11.220;2023-02-13T02:24:27;30.23;;;17.27;;
7361;SDS011;3721;44.490;11.220;2023-02-13T02:44:17;33.43;;;16.77;;
7361;SDS011;3721;44.490;11.220;2023-02-13T02:49:54;28.10;;;14.57;;
7361;SDS011;3721;44.490;11.220;2023-02-13T03:00:58;20.07;;;11.03;;
7361;SDS011;3721;44.490;11.220;2023-02-13T03:03:45;19.40;;;10.53;;
7361;SDS011;3721;44.490;11.220;2023-02-13T03:06:34;18.83;;;11.07;;
7361;SDS011;3721;44.490;11.220;2023-02-13T03:09:11;23.27;;;12.53;;
7361;SDS011;3721;44.490;11.220;2023-02-13T03:11:58;22.97;;;11.70;;
7361;SDS011;3721;44.490;11.220;2023-02-13T03:14:44;21.87;;;9.90;;
7361;SDS011;3721;44.490;11.220;2023-02-13T03:17:11;18.43;;;9.50;;
7361;SDS011;3721;44.490;11.220;2023-02-13T03:23:23;16.13;;;9.67;;
7361;SDS011;3721;44.490;11.220;2023-02-13T03:26:04;19.00;;;9.47;;
7361;SDS011;3721;44.490;11.220;2023-02-13T03:28:44;14.23;;;8.73;;
7361;SDS011;3721;44.490;11.220;2023-02-13T03:34:25;15.00;;;8.50;;
7361;SDS011;3721;44.490;11.220;2023-02-13T03:37:22;14.07;;;7.87;;
7361;SDS011;3721;44.490;11.220;2023-02-13T03:40:15;14.13;;;8.40;;
7361;SDS011;3721;44.490;11.220;2023-02-13T03:42:51;12.83;;;8.20;;
7361;SDS011;3721;44.490;11.220;2023-02-13T03:45:23;13.70;;;7.40;;
7361;SDS011;3721;44.490;11.220;2023-02-13T03:48:11;9.67;;;5.93;;
7361;SDS011;3721;44.490;11.220;2023-02-13T03:50:59;13.37;;;7.10;;
7361;SDS011;3721;44.490;11.220;2023-02-13T03:53:28;15.23;;;7.60;;
7361;SDS011;3721;44.490;11.220;2023-02-13T03:55:57;16.03;;;7.40;;
7361;SDS011;3721;44.490;11.220;2023-02-13T03:58:48;11.33;;;6.20;;
7361;SDS011;3721;44.490;11.220;2023-02-13T04:01:35;10.00;;;5.70;;
7361;SDS011;3721;44.490;11.220;2023-02-13T04:06:39;10.30;;;5.80;;
7361;SDS011;3721;44.490;11.220;2023-02-13T04:09:13;9.83;;;5.97;;
7361;SDS011;3721;44.490;11.220;2023-02-13T04:14:16;13.10;;;5.93;;
7361;SDS011;3721;44.490;11.220;2023-02-13T04:16:46;9.07;;;5.87;;
7361;SDS011;3721;44.490;11.220;2023-02-13T04:19:16;10.40;;;5.87;;
7361;SDS011;3721;44.490;11.220;2023-02-13T04:21:44;11.53;;;5.90;;
7361;SDS011;3721;44.490;11.220;2023-02-13T04:24:18;11.60;;;5.70;;
7361;SDS011;3721;44.490;11.220;2023-02-13T04:26:44;11.17;;;5.83;;
7361;SDS011;3721;44.490;11.220;2023-02-13T04:29:10;16.33;;;5.53;;
7361;SDS011;3721;44.490;11.220;2023-02-13T04:31:35;14.63;;;5.83;;
7361;SDS011;3721;44.490;11.220;2023-02-13T04:34:01;13.67;;;5.37;;
7361;SDS011;3721;44.490;11.220;2023-02-13T04:36:27;10.80;;;5.63;;
7361;SDS011;3721;44.490;11.220;2023-02-13T04:38:53;11.17;;;5.60;;
7361;SDS011;3721;44.490;11.220;2023-02-13T04:41:19;7.97;;;4.60;;
7361;SDS011;3721;44.490;11.220;2023-02-13T04:43:44;9.20;;;5.43;;
7361;SDS011;3721;44.490;11.220;2023-02-13T04:46:10;9.73;;;5.07;;
7361;SDS011;3721;44.490;11.220;2023-02-13T04:48:36;9.97;;;5.07;;
7361;SDS011;3721;44.490;11.220;2023-02-13T04:51:01;10.10;;;5.50;;
7361;SDS011;3721;44.490;11.220;2023-02-13T04:53:27;7.87;;;4.30;;
7361;SDS011;3721;44.490;11.220;2023-02-13T04:55:53;8.73;;;5.10;;
7361;SDS011;3721;44.490;11.220;2023-02-13T04:58:18;8.60;;;4.87;;
7361;SDS011;3721;44.490;11.220;2023-02-13T05:00:44;8.93;;;5.33;;
7361;SDS011;3721;44.490;11.220;2023-02-13T05:03:11;9.13;;;5.37;;
7361;SDS011;3721;44.490;11.220;2023-02-13T05:05:38;9.07;;;4.93;;
7361;SDS011;3721;44.490;11.220;2023-02-13T05:08:05;9.17;;;4.63;;
7361;SDS011;3721;44.490;11.220;2023-02-13T05:10:31;12.93;;;5.00;;
7361;SDS011;3721;44.490;11.220;2023-02-13T05:12:57;11.33;;;4.70;;
7361;SDS011;3721;44.490;11.220;2023-02-13T05:15:24;9.80;;;4.80;;
7361;SDS011;3721;44.490;11.220;2023-02-13T05:18:01;10.46;;;6.06;;
7361;SDS011;3721;44.490;11.220;2023-02-13T05:20:27;7.40;;;4.53;;
7361;SDS011;3721;44.490;11.220;2023-02-13T05:22:58;10.07;;;5.30;;
7361;SDS011;3721;44.490;11.220;2023-02-13T05:26:01;9.26;;;4.69;;
7361;SDS011;3721;44.490;11.220;2023-02-13T05:28:27;9.07;;;5.40;;
7361;SDS011;3721;44.490;11.220;2023-02-13T05:31:11;11.60;;;5.43;;
7361;SDS011;3721;44.490;11.220;2023-02-13T05:33:37;6.93;;;5.07;;
7361;SDS011;3721;44.490;11.220;2023-02-13T05:36:03;8.10;;;4.70;;
7361;SDS011;3721;44.490;11.220;2023-02-13T05:38:29;8.57;;;5.30;;
7361;SDS011;3721;44.490;11.220;2023-02-13T05:40:57;10.90;;;5.30;;
7361;SDS011;3721;44.490;11.220;2023-02-13T05:43:24;10.30;;;5.27;;
7361;SDS011;3721;44.490;11.220;2023-02-13T05:45:50;9.43;;;5.10;;
7361;SDS011;3721;44.490;11.220;2023-02-13T05:48:16;7.43;;;4.87;;
7361;SDS011;3721;44.490;11.220;2023-02-13T05:50:42;9.77;;;5.20;;
7361;SDS011;3721;44.490;11.220;2023-02-13T05:53:10;9.43;;;4.87;;
7361;SDS011;3721;44.490;11.220;2023-02-13T05:55:35;9.07;;;4.23;;
7361;SDS011;3721;44.490;11.220;2023-02-13T05:58:02;7.80;;;4.70;;
7361;SDS011;3721;44.490;11.220;2023-02-13T06:00:28;9.60;;;5.17;;
7361;SDS011;3721;44.490;11.220;2023-02-13T06:02:53;8.37;;;5.33;;
7361;SDS011;3721;44.490;11.220;2023-02-13T06:05:19;8.70;;;5.17;;
7361;SDS011;3721;44.490;11.220;2023-02-13T06:07:45;10.27;;;5.17;;
7361;SDS011;3721;44.490;11.220;2023-02-13T06:10:10;8.00;;;5.07;;
7361;SDS011;3721;44.490;11.220;2023-02-13T06:12:36;8.60;;;5.00;;
7361;SDS011;3721;44.490;11.220;2023-02-13T06:15:02;10.20;;;5.27;;
7361;SDS011;3721;44.490;11.220;2023-02-13T06:20:50;7.43;;;5.50;;
7361;SDS011;3721;44.490;11.220;2023-02-13T06:23:15;9.37;;;5.30;;
7361;SDS011;3721;44.490;11.220;2023-02-13T06:25:41;8.33;;;4.90;;
7361;SDS011;3721;44.490;11.220;2023-02-13T06:28:07;9.73;;;5.03;;
7361;SDS011;3721;44.490;11.220;2023-02-13T06:30:33;11.63;;;5.60;;
7361;SDS011;3721;44.490;11.220;2023-02-13T06:32:58;8.23;;;4.90;;
7361;SDS011;3721;44.490;11.220;2023-02-13T06:35:24;9.93;;;5.07;;
7361;SDS011;3721;44.490;11.220;2023-02-13T06:37:50;11.37;;;5.20;;
7361;SDS011;3721;44.490;11.220;2023-02-13T06:40:16;8.47;;;5.47;;
7361;SDS011;3721;44.490;11.220;2023-02-13T06:42:42;10.57;;;6.10;;
7361;SDS011;3721;44.490;11.220;2023-02-13T06:45:09;8.67;;;5.53;;
7361;SDS011;3721;44.490;11.220;2023-02-13T06:47:35;7.90;;;5.40;;
7361;SDS011;3721;44.490;11.220;2023-02-13T06:50:05;11.10;;;6.80;;
7361;SDS011;3721;44.490;11.220;2023-02-13T06:52:31;11.73;;;5.47;;
7361;SDS011;3721;44.490;11.220;2023-02-13T06:54:57;7.87;;;5.00;;
7361;SDS011;3721;44.490;11.220;2023-02-13T06:57:23;11.03;;;6.10;;
7361;SDS011;3721;44.490;11.220;2023-02-13T06:59:48;9.07;;;4.90;;
7361;SDS011;3721;44.490;11.220;2023-02-13T07:02:14;11.90;;;6.07;;
7361;SDS011;3721;44.490;11.220;2023-02-13T07:04:39;11.10;;;4.83;;
7361;SDS011;3721;44.490;11.220;2023-02-13T07:07:05;11.37;;;5.97;;
7361;SDS011;3721;44.490;11.220;2023-02-13T07:09:31;10.03;;;6.07;;
7361;SDS011;3721;44.490;11.220;2023-02-13T07:11:57;9.03;;;5.57;;
7361;SDS011;3721;44.490;11.220;2023-02-13T07:14:22;10.00;;;5.37;;
7361;SDS011;3721;44.490;11.220;2023-02-13T07:16:48;19.07;;;6.83;;
7361;SDS011;3721;44.490;11.220;2023-02-13T07:19:14;12.07;;;6.70;;
7361;SDS011;3721;44.490;11.220;2023-02-13T07:21:39;9.33;;;5.70;;
7361;SDS011;3721;44.490;11.220;2023-02-13T07:24:05;9.50;;;6.47;;
7361;SDS011;3721;44.490;11.220;2023-02-13T07:26:31;10.60;;;6.60;;
7361;SDS011;3721;44.490;11.220;2023-02-13T07:28:57;9.83;;;6.53;;
7361;SDS011;3721;44.490;11.220;2023-02-13T07:31:22;10.70;;;6.10;;
7361;SDS011;3721;44.490;11.220;2023-02-13T07:33:48;8.73;;;5.63;;
7361;SDS011;3721;44.490;11.220;2023-02-13T07:36:14;10.87;;;6.50;;
7361;SDS011;3721;44.490;11.220;2023-02-13T07:38:39;14.50;;;6.90;;
7361;SDS011;3721;44.490;11.220;2023-02-13T07:41:05;9.63;;;5.70;;
7361;SDS011;3721;44.490;11.220;2023-02-13T07:43:31;9.30;;;6.50;;
7361;SDS011;3721;44.490;11.220;2023-02-13T07:45:57;10.63;;;6.53;;
7361;SDS011;3721;44.490;11.220;2023-02-13T07:48:23;13.37;;;7.87;;
7361;SDS011;3721;44.490;11.220;2023-02-13T07:50:51;11.57;;;7.10;;
7361;SDS011;3721;44.490;11.220;2023-02-13T07:53:17;14.53;;;8.00;;
7361;SDS011;3721;44.490;11.220;2023-02-13T07:55:43;16.37;;;7.83;;
7361;SDS011;3721;44.490;11.220;2023-02-13T07:58:09;10.17;;;7.37;;
7361;SDS011;3721;44.490;11.220;2023-02-13T08:00:34;13.77;;;7.83;;
7361;SDS011;3721;44.490;11.220;2023-02-13T08:03:00;16.47;;;9.00;;
7361;SDS011;3721;44.490;11.220;2023-02-13T08:05:27;16.43;;;9.20;;
7361;SDS011;3721;44.490;11.220;2023-02-13T08:07:54;24.87;;;13.90;;
7361;SDS011;3721;44.490;11.220;2023-02-13T08:10:20;26.77;;;15.77;;
7361;SDS011;3721;44.490;11.220;2023-02-13T08:13:05;28.50;;;16.30;;
7361;SDS011;3721;44.490;11.220;2023-02-13T08:15:32;30.07;;;17.07;;
7361;SDS011;3721;44.490;11.220;2023-02-13T08:17:58;28.43;;;16.93;;
7361;SDS011;3721;44.490;11.220;2023-02-13T08:20:23;31.73;;;18.00;;
7361;SDS011;3721;44.490;11.220;2023-02-13T08:22:49;41.67;;;19.07;;
7361;SDS011;3721;44.490;11.220;2023-02-13T08:25:15;35.50;;;18.53;;
7361;SDS011;3721;44.490;11.220;2023-02-13T08:27:41;31.10;;;17.30;;
7361;SDS011;3721;44.490;11.220;2023-02-13T08:30:07;44.97;;;19.87;;
7361;SDS011;3721;44.490;11.220;2023-02-13T08:32:33;37.77;;;20.87;;
7361;SDS011;3721;44.490;11.220;2023-02-13T08:34:59;43.60;;;20.57;;
7361;SDS011;3721;44.490;11.220;2023-02-13T08:37:25;38.73;;;20.90;;
7361;SDS011;3721;44.490;11.220;2023-02-13T08:39:50;40.17;;;22.67;;
7361;SDS011;3721;44.490;11.220;2023-02-13T08:42:16;41.80;;;22.80;;
7361;SDS011;3721;44.490;11.220;2023-02-13T08:44:41;36.80;;;21.97;;
7361;SDS011;3721;44.490;11.220;2023-02-13T08:47:08;41.67;;;24.57;;
7361;SDS011;3721;44.490;11.220;2023-02-13T08:49:33;48.77;;;27.40;;
7361;SDS011;3721;44.490;11.220;2023-02-13T08:52:00;47.50;;;26.30;;
7361;SDS011;3721;44.490;11.220;2023-02-13T08:54:26;46.63;;;26.20;;
7361;SDS011;3721;44.490;11.220;2023-02-13T08:56:52;55.23;;;27.20;;
7361;SDS011;3721;44.490;11.220;2023-02-13T08:59:19;43.83;;;26.10;;
7361;SDS011;3721;44.490;11.220;2023-02-13T09:01:45;45.60;;;26.70;;
7361;SDS011;3721;44.490;11.220;2023-02-13T09:04:10;46.97;;;25.50;;
7361;SDS011;3721;44.490;11.220;2023-02-13T09:06:39;44.70;;;25.13;;
7361;SDS011;3721;44.490;11.220;2023-02-13T09:09:05;45.33;;;27.00;;
7361;SDS011;3721;44.490;11.220;2023-02-13T09:11:31;50.57;;;28.10;;
7361;SDS011;3721;44.490;11.220;2023-02-13T09:13:57;43.10;;;25.70;;
7361;SDS011;3721;44.490;11.220;2023-02-13T09:16:22;43.97;;;26.73;;
7361;SDS011;3721;44.490;11.220;2023-02-13T09:18:48;50.17;;;25.60;;
7361;SDS011;3721;44.490;11.220;2023-02-13T09:21:15;53.37;;;28.80;;
7361;SDS011;3721;44.490;11.220;2023-02-13T09:23:41;46.63;;;26.40;;
7361;SDS011;3721;44.490;11.220;2023-02-13T09:26:08;51.13;;;30.37;;
7361;SDS011;3721;44.490;11.220;2023-02-13T09:28:36;49.93;;;29.83;;
7361;SDS011;3721;44.490;11.220;2023-02-13T09:31:08;50.23;;;28.97;;
7361;SDS011;3721;44.490;11.220;2023-02-13T09:33:43;50.73;;;29.10;;
7361;SDS011;3721;44.490;11.220;2023-02-13T09:36:11;51.00;;;27.13;;
7361;SDS011;3721;44.490;11.220;2023-02-13T09:38:44;51.97;;;30.27;;
7361;SDS011;3721;44.490;11.220;2023-02-13T09:41:13;54.03;;;28.70;;
7361;SDS011;3721;44.490;11.220;2023-02-13T09:43:54;52.10;;;27.40;;
7361;SDS011;3721;44.490;11.220;2023-02-13T09:47:10;50.47;;;29.40;;
7361;SDS011;3721;44.490;11.220;2023-02-13T09:49:36;56.10;;;30.53;;
7361;SDS011;3721;44.490;11.220;2023-02-13T09:52:07;54.00;;;30.50;;
7361;SDS011;3721;44.490;11.220;2023-02-13T09:54:34;53.53;;;28.47;;
7361;SDS011;3721;44.490;11.220;2023-02-13T09:57:00;59.37;;;31.50;;
7361;SDS011;3721;44.490;11.220;2023-02-13T10:10:27;51.03;;;29.87;;
7361;SDS011;3721;44.490;11.220;2023-02-13T10:13:16;44.73;;;26.27;;
7361;SDS011;3721;44.490;11.220;2023-02-13T10:15:50;50.23;;;28.20;;
7361;SDS011;3721;44.490;11.220;2023-02-13T10:18:30;47.90;;;29.17;;
7361;SDS011;3721;44.490;11.220;2023-02-13T10:21:06;51.57;;;29.60;;
7361;SDS011;3721;44.490;11.220;2023-02-13T10:26:05;49.67;;;27.83;;
7361;SDS011;3721;44.490;11.220;2023-02-13T10:28:46;48.43;;;26.53;;
7361;SDS011;3721;44.490;11.220;2023-02-13T10:31:38;47.60;;;26.67;;
7361;SDS011;3721;44.490;11.220;2023-02-13T10:34:10;47.07;;;25.07;;
7361;SDS011;3721;44.490;11.220;2023-02-13T10:36:43;49.87;;;27.30;;
7361;SDS011;3721;44.490;11.220;2023-02-13T10:39:23;47.30;;;26.13;;
7361;SDS011;3721;44.490;11.220;2023-02-13T10:41:54;42.43;;;25.10;;
7361;SDS011;3721;44.490;11.220;2023-02-13T10:50:22;41.43;;;23.40;;
7361;SDS011;3721;44.490;11.220;2023-02-13T10:53:05;32.37;;;18.50;;
7361;SDS011;3721;44.490;11.220;2023-02-13T11:03:33;28.00;;;17.10;;
7361;SDS011;3721;44.490;11.220;2023-02-13T11:06:00;32.70;;;20.53;;
7361;SDS011;3721;44.490;11.220;2023-02-13T11:08:33;32.03;;;17.50;;
7361;SDS011;3721;44.490;11.220;2023-02-13T11:10:59;34.47;;;21.17;;
7361;SDS011;3721;44.490;11.220;2023-02-13T11:13:26;38.10;;;21.43;;
7361;SDS011;3721;44.490;11.220;2023-02-13T11:18:30;34.00;;;18.40;;
7361;SDS011;3721;44.490;11.220;2023-02-13T11:21:03;32.50;;;18.80;;
7361;SDS011;3721;44.490;11.220;2023-02-13T11:23:34;32.87;;;18.07;;
7361;SDS011;3721;44.490;11.220;2023-02-13T11:26:31;33.37;;;18.16;;
7361;SDS011;3721;44.490;11.220;2023-02-13T11:29:00;28.80;;;17.20;;
7361;SDS011;3721;44.490;11.220;2023-02-13T11:34:26;29.26;;;17.84;;
7361;SDS011;3721;44.490;11.220;2023-02-13T11:36:54;27.97;;;15.43;;
7361;SDS011;3721;44.490;11.220;2023-02-13T11:39:39;27.43;;;16.43;;
7361;SDS011;3721;44.490;11.220;2023-02-13T11:42:18;28.70;;;17.40;;
7361;SDS011;3721;44.490;11.220;2023-02-13T11:44:51;30.83;;;17.10;;
7361;SDS011;3721;44.490;11.220;2023-02-13T11:47:33;27.63;;;16.70;;
7361;SDS011;3721;44.490;11.220;2023-02-13T11:49:59;28.20;;;16.93;;
7361;SDS011;3721;44.490;11.220;2023-02-13T11:52:26;30.13;;;17.50;;
7361;SDS011;3721;44.490;11.220;2023-02-13T11:54:55;34.60;;;18.40;;
7361;SDS011;3721;44.490;11.220;2023-02-13T11:59:51;32.63;;;17.67;;
7361;SDS011;3721;44.490;11.220;2023-02-13T12:02:21;26.50;;;14.93;;
7361;SDS011;3721;44.490;11.220;2023-02-13T12:04:50;25.17;;;13.03;;
7361;SDS011;3721;44.490;11.220;2023-02-13T12:07:36;22.43;;;13.10;;
7361;SDS011;3721;44.490;11.220;2023-02-13T12:10:10;25.30;;;14.00;;
7361;SDS011;3721;44.490;11.220;2023-02-13T12:12:49;24.50;;;13.20;;
7361;SDS011;3721;44.490;11.220;2023-02-13T12:15:23;25.93;;;15.27;;
7361;SDS011;3721;44.490;11.220;2023-02-13T12:17:58;28.33;;;15.53;;
7361;SDS011;3721;44.490;11.220;2023-02-13T12:20:34;20.20;;;12.17;;
7361;SDS011;3721;44.490;11.220;2023-02-13T12:26:00;20.03;;;11.90;;
7361;SDS011;3721;44.490;11.220;2023-02-13T12:28:45;29.40;;;13.80;;
7361;SDS011;3721;44.490;11.220;2023-02-13T12:31:25;23.90;;;14.53;;
7361;SDS011;3721;44.490;11.220;2023-02-13T12:36:44;27.03;;;14.17;;
7361;SDS011;3721;44.490;11.220;2023-02-13T12:39:34;24.93;;;13.23;;
7361;SDS011;3721;44.490;11.220;2023-02-13T12:42:13;22.67;;;12.37;;
7361;SDS011;3721;44.490;11.220;2023-02-13T12:52:41;23.90;;;12.57;;
7361;SDS011;3721;44.490;11.220;2023-02-13T12:55:20;20.57;;;12.30;;
7361;SDS011;3721;44.490;11.220;2023-02-13T13:00:36;24.47;;;12.63;;
7361;SDS011;3721;44.490;11.220;2023-02-13T13:03:30;20.50;;;11.97;;
7361;SDS011;3721;44.490;11.220;2023-02-13T13:11:53;20.57;;;11.43;;
7361;SDS011;3721;44.490;11.220;2023-02-13T13:19:48;19.57;;;10.03;;
7361;SDS011;3721;44.490;11.220;2023-02-13T13:25:00;19.50;;;11.80;;
7361;SDS011;3721;44.490;11.220;2023-02-13T13:27:51;22.83;;;13.40;;
7361;SDS011;3721;44.490;11.220;2023-02-13T13:32:53;19.60;;;11.53;;
7361;SDS011;3721;44.490;11.220;2023-02-13T13:35:21;22.13;;;11.50;;
7361;SDS011;3721;44.490;11.220;2023-02-13T13:37:50;20.77;;;11.80;;
7361;SDS011;3721;44.490;11.220;2023-02-13T13:43:20;19.57;;;12.83;;
7361;SDS011;3721;44.490;11.220;2023-02-13T13:51:24;20.10;;;11.23;;
7361;SDS011;3721;44.490;11.220;2023-02-13T13:56:25;22.33;;;12.30;;
7361;SDS011;3721;44.490;11.220;2023-02-13T13:58:51;19.97;;;10.20;;
7361;SDS011;3721;44.490;11.220;2023-02-13T14:03:55;21.00;;;11.80;;
7361;SDS011;3721;44.490;11.220;2023-02-13T14:12:34;19.90;;;11.57;;
7361;SDS011;3721;44.490;11.220;2023-02-13T14:15:01;23.77;;;11.13;;
7361;SDS011;3721;44.490;11.220;2023-02-13T14:20:33;20.10;;;11.50;;
7361;SDS011;3721;44.490;11.220;2023-02-13T14:23:06;19.30;;;11.63;;
7361;SDS011;3721;44.490;11.220;2023-02-13T14:25:43;21.10;;;11.87;;
7361;SDS011;3721;44.490;11.220;2023-02-13T14:28:17;21.77;;;12.80;;
7361;SDS011;3721;44.490;11.220;2023-02-13T14:30:52;23.17;;;12.43;;
7361;SDS011;3721;44.490;11.220;2023-02-13T14:33:30;20.63;;;11.93;;
7361;SDS011;3721;44.490;11.220;2023-02-13T14:35:58;21.77;;;11.90;;
7361;SDS011;3721;44.490;11.220;2023-02-13T14:38:30;19.30;;;12.03;;
7361;SDS011;3721;44.490;11.220;2023-02-13T14:40:56;22.87;;;13.20;;
7361;SDS011;3721;44.490;11.220;2023-02-13T14:43:44;22.53;;;12.70;;
7361;SDS011;3721;44.490;11.220;2023-02-13T14:49:10;20.83;;;12.07;;
7361;SDS011;3721;44.490;11.220;2023-02-13T14:51:50;20.00;;;12.33;;
7361;SDS011;3721;44.490;11.220;2023-02-13T14:57:04;24.97;;;12.77;;
7361;SDS011;3721;44.490;11.220;2023-02-13T14:59:31;19.23;;;11.37;;
7361;SDS011;3721;44.490;11.220;2023-02-13T15:02:06;23.57;;;12.90;;
7361;SDS011;3721;44.490;11.220;2023-02-13T15:04:45;24.80;;;12.73;;
7361;SDS011;3721;44.490;11.220;2023-02-13T15:07:36;22.53;;;12.90;;
7361;SDS011;3721;44.490;11.220;2023-02-13T15:10:27;20.87;;;12.17;;
7361;SDS011;3721;44.490;11.220;2023-02-13T15:13:14;24.67;;;13.47;;
7361;SDS011;3721;44.490;11.220;2023-02-13T15:15:54;24.20;;;12.60;;
7361;SDS011;3721;44.490;11.220;2023-02-13T15:18:48;21.37;;;12.60;;
7361;SDS011;3721;44.490;11.220;2023-02-13T15:21:20;23.40;;;12.53;;
7361;SDS011;3721;44.490;11.220;2023-02-13T15:23:48;22.00;;;11.13;;
7361;SDS011;3721;44.490;11.220;2023-02-13T15:26:20;20.40;;;11.13;;
7361;SDS011;3721;44.490;11.220;2023-02-13T15:29:16;25.43;;;12.50;;
7361;SDS011;3721;44.490;11.220;2023-02-13T15:31:42;23.47;;;12.47;;
7361;SDS011;3721;44.490;11.220;2023-02-13T15:34:21;22.63;;;12.70;;
7361;SDS011;3721;44.490;11.220;2023-02-13T15:36:52;20.87;;;11.00;;
7361;SDS011;3721;44.490;11.220;2023-02-13T15:39:20;19.10;;;11.40;;
7361;SDS011;3721;44.490;11.220;2023-02-13T15:41:49;24.57;;;12.80;;
7361;SDS011;3721;44.490;11.220;2023-02-13T15:44:27;22.93;;;12.43;;
7361;SDS011;3721;44.490;11.220;2023-02-13T15:46:58;22.13;;;11.20;;
7361;SDS011;3721;44.490;11.220;2023-02-13T15:49:32;25.40;;;12.40;;
7361;SDS011;3721;44.490;11.220;2023-02-13T15:52:08;21.97;;;12.70;;
7361;SDS011;3721;44.490;11.220;2023-02-13T15:54:52;22.03;;;11.53;;
7361;SDS011;3721;44.490;11.220;2023-02-13T15:57:19;23.57;;;12.20;;
7361;SDS011;3721;44.490;11.220;2023-02-13T15:59:46;23.80;;;12.97;;
7361;SDS011;3721;44.490;11.220;2023-02-13T16:02:17;21.43;;;12.60;;
7361;SDS011;3721;44.490;11.220;2023-02-13T16:04:46;23.47;;;12.73;;
7361;SDS011;3721;44.490;11.220;2023-02-13T16:07:16;23.43;;;12.53;;
7361;SDS011;3721;44.490;11.220;2023-02-13T16:09:42;28.67;;;13.57;;
7361;SDS011;3721;44.490;11.220;2023-02-13T16:12:17;22.27;;;13.00;;
7361;SDS011;3721;44.490;11.220;2023-02-13T16:14:46;19.33;;;12.10;;
7361;SDS011;3721;44.490;11.220;2023-02-13T16:17:32;22.67;;;13.07;;
7361;SDS011;3721;44.490;11.220;2023-02-13T16:20:07;26.87;;;13.37;;
7361;SDS011;3721;44.490;11.220;2023-02-13T16:22:47;23.87;;;12.13;;
7361;SDS011;3721;44.490;11.220;2023-02-13T16:25:19;25.13;;;13.37;;
7361;SDS011;3721;44.490;11.220;2023-02-13T16:27:58;37.13;;;12.03;;
7361;SDS011;3721;44.490;11.220;2023-02-13T16:30:28;28.00;;;13.20;;
7361;SDS011;3721;44.490;11.220;2023-02-13T16:35:41;27.67;;;14.10;;
7361;SDS011;3721;44.490;11.220;2023-02-13T16:40:57;26.27;;;13.63;;
7361;SDS011;3721;44.490;11.220;2023-02-13T16:48:42;30.80;;;13.27;;
7361;SDS011;3721;44.490;11.220;2023-02-13T16:51:28;21.53;;;11.87;;
7361;SDS011;3721;44.490;11.220;2023-02-13T16:56:38;23.10;;;11.77;;
7361;SDS011;3721;44.490;11.220;2023-02-13T17:04:39;24.33;;;11.83;;
7361;SDS011;3721;44.490;11.220;2023-02-13T17:07:10;24.67;;;11.93;;
7361;SDS011;3721;44.490;11.220;2023-02-13T17:09:37;19.30;;;10.53;;
7361;SDS011;3721;44.490;11.220;2023-02-13T17:12:03;23.40;;;13.20;;
7361;SDS011;3721;44.490;11.220;2023-02-13T17:14:35;21.90;;;12.00;;
7361;SDS011;3721;44.490;11.220;2023-02-13T17:17:00;25.53;;;12.43;;
7361;SDS011;3721;44.490;11.220;2023-02-13T17:19:26;22.73;;;11.77;;
7361;SDS011;3721;44.490;11.220;2023-02-13T17:21:52;23.27;;;12.60;;
7361;SDS011;3721;44.490;11.220;2023-02-13T17:24:19;20.30;;;10.80;;
7361;SDS011;3721;44.490;11.220;2023-02-13T17:26:45;23.03;;;11.30;;
7361;SDS011;3721;44.490;11.220;2023-02-13T17:29:11;20.70;;;11.90;;
7361;SDS011;3721;44.490;11.220;2023-02-13T17:31:36;23.60;;;12.90;;
7361;SDS011;3721;44.490;11.220;2023-02-13T17:34:02;22.53;;;12.53;;
7361;SDS011;3721;44.490;11.220;2023-02-13T17:36:29;24.60;;;13.00;;
7361;SDS011;3721;44.490;11.220;2023-02-13T17:39:07;25.60;;;13.05;;
7361;SDS011;3721;44.490;11.220;2023-02-13T17:41:33;24.43;;;13.03;;
7361;SDS011;3721;44.490;11.220;2023-02-13T17:44:04;24.57;;;12.27;;